Monday, November 20, 2017, 6:49 PM GMT
Back to Local

CWQP, Point Petre , Ont.

Location: , , Canada Lat: 43.833
Local Time: 6:49 PM GMT (18:49 GMT) Lon: -77.15
Time Zone: GMT Elev: 259 ft

Show me the last for .
Show Coded

Time T Td Feel RH Dir Speed Gust Alt SLP Vis Weather Sky Remarks
2017-11-20 18:00 40 30 28 66 270° 26 40 - 29.91 0 Peak wind: 41 mph (36 kts) from 270° at 48 min
2017-11-20 17:00 39 30 25 69 260° 25 44 - 29.92 0 Peak wind: 43 mph (38 kts) from 270° at 56 min
2017-11-20 16:00 38 29 25 69 260° 25 37 - 29.92 0 Peak wind: 44 mph (39 kts) from 250° at 11 min
1-hr Precip Total: 0.02"
2017-11-20 15:00 38 31 23 77 260° 30 45 - 29.91 0 Peak wind: 44 mph (39 kts) from 250° at 58 min
2017-11-20 14:00 38 26 24 63 270° 29 37 - 29.91 0 Peak wind: 42 mph (37 kts) from 280° at 45 min
2017-11-20 13:00 37 28 23 69 290° 26 38 - 29.91 0 Peak wind: 37 mph (33 kts) from 280° at 53 min
2017-11-20 12:00 26 19 19 76 40° 6 - - 29.91 0 None
2017-11-20 11:00 26 19 19 74 20° 6 - - 29.91 0 None
2017-11-20 10:00 27 17 19 66 340° 7 - - 29.91 0 None
2017-11-20 09:00 27 15 17 60 330° 10 - - 29.90 0 Peak wind: 21 mph (19 kts) from 320° at 02 min
2017-11-20 08:00 27 15 12 60 330° 16 24 - 29.88 0 Peak wind: 24 mph (21 kts) from 320° at 55 min
2017-11-20 07:00 28 15 14 55 320° 16 26 - 29.87 0 Peak wind: 31 mph (27 kts) from 320° at 09 min
2017-11-20 06:00 29 19 14 64 320° 17 26 - 29.85 0 Peak wind: 37 mph (33 kts) from 300° at 11 min
2017-11-20 05:00 30 17 14 58 310° 24 32 - 29.83 0 Peak wind: 34 mph (30 kts) from 290° at 23 min
2017-11-20 04:00 31 24 18 74 310° 17 24 - 29.79 0 Peak wind: 26 mph (23 kts) from 320° at 10 min
2017-11-20 03:00 32 23 19 71 320° 15 23 - 29.76 0 Peak wind: 25 mph (22 kts) from 310° at 43 min
2017-11-20 02:00 31 25 18 76 320° 16 23 - 29.74 0 Peak wind: 23 mph (20 kts) from 310° at 52 min
2017-11-20 01:00 33 24 21 68 320° 14 22 - 29.72 0 Peak wind: 24 mph (21 kts) from 330° at 13 min
2017-11-20 00:00 34 26 25 71 320° 13 - - 29.72 0 Peak wind: 25 mph (22 kts) from 300° at 05 min
2017-11-19 23:00 35 26 23 67 310° 17 23 - 29.69 0 Peak wind: 27 mph (24 kts) from 310° at 08 min
2017-11-19 22:00 36 26 23 65 300° 18 28 - 29.67 0 Peak wind: 27 mph (24 kts) from 290° at 40 min
2017-11-19 21:00 35 26 22 70 300° 20 28 - 29.65 0 Peak wind: 36 mph (32 kts) from 280° at 01 min
2017-11-19 20:00 37 25 25 61 300° 23 32 - 29.61 0 Peak wind: 35 mph (31 kts) from 300° at 02 min
2017-11-19 19:00 37 25 25 61 300° 22 31 - 29.59 0 Peak wind: 37 mph (33 kts) from 280° at 18 min

Support USWX by starting your Amazon purchase here.